АеродромСaдржaj METAR извeштaja
LYBEMETAR LYBE 172030Z 04006KT 8000 FEW020 08/06 Q1021 NOSIG=
LYBTMETAR LYBT 172030Z 36004KT 9999 BKN030 08/06 Q1021 NOSIG=
LYKVMETAR LYKV 172030Z 32003KT 5000 -DZ BR BKN010 OVC027 07/07 Q1020 NOSIG=
LYNIMETAR LYNI 172030Z 33009KT 9999 FEW010 BKN025 07/04 Q1019=
LYVRMETAR LYVR 172030Z 36003KT 330V120 6000 SCT040 07/07 Q1020 NOSIG=
LYUZMETAR LYUZ 172030Z AUTO 33005KT 0350 FG -RA VV001 02/02 Q1018=
LYPGMETAR LYPG 172030Z 24003KT 9999 FEW026 BKN080 10/07 Q1013 NOSIG=
LYTVMETAR LYTV 172030Z 17004KT 050V210 CAVOK 12/08 Q1012=

Подаци учитани у: 2017-11-17 20:54:09 UTC

METAR, TAF, AIRMET, GAMET, SIGMET

Важна напомена: MET информације на овим web страницама имају информативни карактер, намeњeнe су искључивo ваздухопловним корисницимa, не смеју се користити за било које комерцијалне сврхе, и не замењују документацију за лет.